createdAt,value
2019-02-19T00:03:59.232Z,7.94
2019-02-19T00:09:04.652Z,8.05
2019-02-19T00:14:07.993Z,8.15
2019-02-19T00:19:10.894Z,9.07
2019-02-19T00:24:14.407Z,8.41
2019-02-19T00:29:17.217Z,7.77
2019-02-19T00:34:20.766Z,7.56
2019-02-19T00:39:23.629Z,7.74
2019-02-19T00:44:28.678Z,7.83
2019-02-19T00:49:31.286Z,7.82
2019-02-19T00:54:34.495Z,7.35
2019-02-19T00:59:37.699Z,7.19
2019-02-19T01:04:41.939Z,7.20
2019-02-19T01:09:45.300Z,7.36
2019-02-19T01:14:48.149Z,7.41
2019-02-19T01:19:50.739Z,7.44
2019-02-19T01:24:53.959Z,7.31
2019-02-19T01:29:56.771Z,7.09
2019-02-19T01:35:00.309Z,7.12
2019-02-19T01:40:05.267Z,7.23
2019-02-19T01:45:08.984Z,7.57
2019-02-19T01:50:12.162Z,7.41
2019-02-19T01:55:15.776Z,6.97
2019-02-19T02:00:18.988Z,6.95
2019-02-19T02:05:22.480Z,7.13
2019-02-19T02:10:26.033Z,7.24
2019-02-19T02:15:31.072Z,7.31
2019-02-19T02:20:34.269Z,7.38
2019-02-19T02:25:37.484Z,7.53
2019-02-19T02:30:41.014Z,7.61
2019-02-19T02:35:44.328Z,7.82
2019-02-19T02:40:47.838Z,7.64
2019-02-19T02:45:53.705Z,7.56
2019-02-19T02:50:55.848Z,7.49
2019-02-19T02:55:59.019Z,7.45
2019-02-19T03:01:02.511Z,7.57
2019-02-19T03:06:14.040Z,7.83
2019-02-19T03:11:17.241Z,7.90
2019-02-19T03:16:20.449Z,8.13
2019-02-19T03:21:23.973Z,8.05
2019-02-19T03:26:27.176Z,8.13
2019-02-19T03:31:29.993Z,8.09
2019-02-19T03:36:33.564Z,8.07
2019-02-19T03:41:37.027Z,8.05
2019-02-19T03:46:40.535Z,8.03
2019-02-19T03:51:43.681Z,8.09
2019-02-19T03:56:46.887Z,7.89
2019-02-19T04:01:50.086Z,7.90
2019-02-19T04:06:53.346Z,8.05
2019-02-19T04:11:56.920Z,8.03
2019-02-19T04:17:00.080Z,8.06
2019-02-19T04:22:03.602Z,7.83
2019-02-19T04:27:06.772Z,7.89
2019-02-19T04:32:11.492Z,7.73
2019-02-19T04:37:15.061Z,7.69
2019-02-19T04:42:18.225Z,7.74
2019-02-19T04:47:20.717Z,7.64
2019-02-19T04:52:23.987Z,7.65
2019-02-19T04:57:27.177Z,7.41
2019-02-19T05:02:30.438Z,7.59
2019-02-19T05:07:34.126Z,7.49
2019-02-19T05:17:46.207Z,7.32
2019-02-19T05:22:49.404Z,7.19
2019-02-19T05:27:52.278Z,7.36
2019-02-19T05:32:55.576Z,7.41
2019-02-19T05:37:58.833Z,7.23
2019-02-19T05:43:04.556Z,6.94
2019-02-19T05:48:08.095Z,7.17
2019-02-19T05:53:10.975Z,7.19
2019-02-19T05:58:13.819Z,7.18
2019-02-19T06:03:17.374Z,7.20
2019-02-19T06:08:20.342Z,7.32
2019-02-19T06:13:23.659Z,7.24
2019-02-19T06:18:26.867Z,7.25
2019-02-19T06:23:30.099Z,7.40
2019-02-19T06:28:33.077Z,7.33
2019-02-19T06:33:36.001Z,7.22
2019-02-19T06:38:39.313Z,7.42
2019-02-19T06:43:42.148Z,7.47
2019-02-19T06:48:45.407Z,7.51
2019-02-19T06:53:48.902Z,7.45
2019-02-19T06:58:51.384Z,7.41
2019-02-19T07:04:01.282Z,7.52
2019-02-19T07:09:05.414Z,7.45
2019-02-19T07:14:08.495Z,7.43
2019-02-19T07:19:11.733Z,7.39
2019-02-19T07:24:14.582Z,7.52
2019-02-19T07:29:18.033Z,7.41
2019-02-19T07:34:20.950Z,7.28
2019-02-19T07:39:24.376Z,7.37
2019-02-19T07:44:27.225Z,7.51
2019-02-19T07:49:30.479Z,7.48
2019-02-19T07:54:33.895Z,7.34
2019-02-19T07:59:37.015Z,7.23
2019-02-19T08:04:40.564Z,7.21
2019-02-19T08:09:44.033Z,7.24
2019-02-19T08:14:47.561Z,7.28
2019-02-19T08:19:50.461Z,7.19
2019-02-19T08:24:54.246Z,7.40
2019-02-19T08:29:57.796Z,7.15
2019-02-19T08:35:01.006Z,7.16
2019-02-19T08:40:04.338Z,7.28
2019-02-19T08:45:07.901Z,7.32
2019-02-19T08:50:11.148Z,7.43
2019-02-19T08:55:13.956Z,7.31
2019-02-19T09:00:19.972Z,7.26
2019-02-19T09:05:23.223Z,7.42
2019-02-19T09:10:26.448Z,7.38
2019-02-19T09:15:29.694Z,7.46
2019-02-19T09:20:32.569Z,7.64
2019-02-19T09:25:35.721Z,7.40
2019-02-19T09:30:38.996Z,7.37
2019-02-19T09:35:44.455Z,7.55
2019-02-19T09:40:47.943Z,7.58
2019-02-19T09:45:51.253Z,7.51
2019-02-19T09:50:54.857Z,7.74
2019-02-19T09:55:58.519Z,7.51
2019-02-19T10:01:01.728Z,7.56
2019-02-19T10:06:04.591Z,7.78
2019-02-19T10:11:07.854Z,7.66
2019-02-19T10:16:11.305Z,7.43
2019-02-19T10:21:14.869Z,7.48
2019-02-19T10:26:18.089Z,7.41
2019-02-19T10:31:21.337Z,7.37
2019-02-19T10:36:24.252Z,7.50
2019-02-19T10:41:27.244Z,7.54
2019-02-19T10:46:30.112Z,7.44
2019-02-19T10:51:33.196Z,7.53
2019-02-19T10:56:36.268Z,7.48
2019-02-19T11:01:39.874Z,7.28
2019-02-19T11:06:43.301Z,7.28
2019-02-19T11:11:46.629Z,7.34
2019-02-19T11:16:49.556Z,7.21
2019-02-19T11:21:52.781Z,7.17
2019-02-19T11:26:56.510Z,7.08
2019-02-19T11:31:59.156Z,7.20
2019-02-19T11:37:02.399Z,7.00
2019-02-19T11:42:05.429Z,6.98
2019-02-19T11:47:08.975Z,7.00
2019-02-19T11:52:12.444Z,6.99
2019-02-19T11:57:16.010Z,7.11
2019-02-19T12:02:18.964Z,7.00
2019-02-19T12:07:21.864Z,7.05
2019-02-19T12:12:25.081Z,7.11
2019-02-19T12:17:28.729Z,7.10
2019-02-19T12:22:31.540Z,7.23
2019-02-19T12:27:34.365Z,7.28
2019-02-19T12:32:38.026Z,7.11
2019-02-19T12:37:41.554Z,7.21
2019-02-19T12:42:44.030Z,7.34
2019-02-19T12:47:47.205Z,7.24
2019-02-19T12:52:50.163Z,7.26
2019-02-19T12:57:53.000Z,7.44
2019-02-19T13:02:56.396Z,7.31
2019-02-19T13:07:59.263Z,7.21
2019-02-19T13:13:02.474Z,7.39
2019-02-19T13:18:05.773Z,7.55
2019-02-19T13:23:08.776Z,7.77
2019-02-19T13:28:12.291Z,7.67
2019-02-19T13:33:15.832Z,7.72
2019-02-19T13:38:18.851Z,7.84
2019-02-19T13:43:22.407Z,7.79
2019-02-19T13:48:25.770Z,7.64
2019-02-19T13:53:35.799Z,7.83
2019-02-19T13:58:39.037Z,7.77
2019-02-19T14:03:41.953Z,8.10
2019-02-19T14:08:44.844Z,7.90
2019-02-19T14:14:03.388Z,7.80
2019-02-19T14:19:28.249Z,7.74
2019-02-19T14:24:38.919Z,7.68
2019-02-19T14:29:56.684Z,7.90
2019-02-19T14:35:31.631Z,8.34
2019-02-19T14:41:00.128Z,8.20
2019-02-19T14:46:28.643Z,8.01
2019-02-19T14:51:51.180Z,7.98
2019-02-19T14:57:02.390Z,8.12
2019-02-19T15:02:27.827Z,7.90
2019-02-19T15:07:50.043Z,7.98
2019-02-19T15:13:03.932Z,8.08
2019-02-19T15:18:32.369Z,8.18
2019-02-19T15:23:48.559Z,8.12
2019-02-19T15:29:03.535Z,7.85
2019-02-19T15:34:41.164Z,7.70
2019-02-19T15:39:52.878Z,7.69
2019-02-19T15:45:15.447Z,7.63
2019-02-19T15:50:37.808Z,7.67
2019-02-19T15:56:17.205Z,7.56
2019-02-19T16:01:42.066Z,7.45
2019-02-19T16:06:50.820Z,7.51
2019-02-19T16:12:25.599Z,7.56
2019-02-19T16:17:48.954Z,7.43
2019-02-19T16:23:10.378Z,7.36
2019-02-19T16:28:43.204Z,7.33
2019-02-19T16:34:08.453Z,7.30
2019-02-19T16:39:34.347Z,7.18
2019-02-19T16:45:12.165Z,7.26
2019-02-19T16:50:43.431Z,7.31
2019-02-19T16:56:05.310Z,7.23
2019-02-19T17:01:27.800Z,7.20
2019-02-19T17:06:40.161Z,7.34
2019-02-19T17:11:55.358Z,7.04
2019-02-19T17:17:16.229Z,6.76
2019-02-19T17:22:35.890Z,6.58
2019-02-19T17:27:51.595Z,6.62
2019-02-19T17:33:19.987Z,6.52
2019-02-19T17:38:43.265Z,6.50
2019-02-19T17:43:58.044Z,6.53
2019-02-19T17:49:19.187Z,6.72
2019-02-19T17:54:57.013Z,6.67
2019-02-19T18:00:21.435Z,6.54
2019-02-19T18:05:44.193Z,6.63
2019-02-19T18:11:07.841Z,6.64
2019-02-19T18:16:31.520Z,6.65
2019-02-19T18:21:45.153Z,6.86
2019-02-19T18:26:49.639Z,6.82
2019-02-19T18:31:53.146Z,6.76
2019-02-19T18:36:57.104Z,6.73
2019-02-19T18:42:00.975Z,6.89
2019-02-19T18:47:04.492Z,6.87
2019-02-19T18:52:09.076Z,6.91
2019-02-19T18:57:13.142Z,6.87
2019-02-19T19:02:17.861Z,6.68
2019-02-19T19:07:24.359Z,6.75
2019-02-19T19:12:31.272Z,6.79
2019-02-19T19:17:36.606Z,6.86
2019-02-19T19:22:42.490Z,6.89
2019-02-19T19:27:48.741Z,6.92
2019-02-19T19:32:54.550Z,6.95
2019-02-19T19:37:58.474Z,6.89
2019-02-19T19:43:04.142Z,6.59
2019-02-19T19:48:09.147Z,6.92
2019-02-19T19:53:16.348Z,6.80
2019-02-19T19:58:22.071Z,6.92
2019-02-19T20:03:27.885Z,6.75
2019-02-19T20:08:33.969Z,6.72
2019-02-19T20:13:41.479Z,6.81
2019-02-19T20:18:47.048Z,6.89
2019-02-19T20:23:54.461Z,6.82
2019-02-19T20:28:58.890Z,6.96
2019-02-19T20:34:06.067Z,6.78
2019-02-19T20:39:13.122Z,6.77
2019-02-19T20:44:18.612Z,6.87
2019-02-19T20:49:25.874Z,6.88
2019-02-19T20:54:32.534Z,6.87
2019-02-19T20:59:39.164Z,6.85
2019-02-19T21:04:46.144Z,6.86
2019-02-19T21:09:52.646Z,6.94
2019-02-19T21:14:59.298Z,6.84
2019-02-19T21:20:04.413Z,6.82
2019-02-19T21:25:09.538Z,6.91
2019-02-19T21:30:14.412Z,6.86
2019-02-19T21:35:18.738Z,6.83
2019-02-19T21:40:23.496Z,6.98
2019-02-19T21:45:27.725Z,7.02
2019-02-19T21:50:31.707Z,7.02
2019-02-19T21:55:36.051Z,6.90
2019-02-19T22:00:39.673Z,7.07
2019-02-19T22:05:43.450Z,6.85
2019-02-19T22:10:46.955Z,6.78
2019-02-19T22:15:50.441Z,6.64
2019-02-19T22:21:08.083Z,6.76
2019-02-19T22:26:11.392Z,6.91
2019-02-19T22:31:14.634Z,6.95
2019-02-19T22:36:17.507Z,6.89
2019-02-19T22:41:21.062Z,6.89
2019-02-19T22:46:24.334Z,6.84
2019-02-19T22:51:27.574Z,6.77
2019-02-19T22:56:33.650Z,6.78
2019-02-19T23:01:51.509Z,6.68
2019-02-19T23:06:54.717Z,6.81
2019-02-19T23:11:57.939Z,6.89
2019-02-19T23:17:01.441Z,6.85
2019-02-19T23:22:04.424Z,6.81
2019-02-19T23:27:07.363Z,6.88
2019-02-19T23:32:10.252Z,6.96
2019-02-19T23:37:24.631Z,6.86
2019-02-19T23:42:27.866Z,6.93
2019-02-19T23:47:31.327Z,6.72
2019-02-19T23:52:34.313Z,6.76
2019-02-19T23:57:37.259Z,6.77
